Terminal Aerodrome Forecast
Issued by NWS

Home | Current Version | Previous Version | Text Only | Print | Product List | Glossary On
Versions: 1 2 3 4 5 6 7 8 9 10 11 12 13 14 15
000
FTAK31 PANC 241139
TAFATK
TAF
PATK 241139Z 2412/2512 01004KT P6SM VCSH OVC070
     FM241800 02006KT 4SM -RA BR SCT010 BKN025 OVC040
     FM242200 02010G20KT 3SM -RASN BR SCT010 BKN020 OVC030
      WS020/14035KT
     FM250200 15010G20KT 4SM -RASN BR BKN012 OVC020 WS020/16040KT
     FM250700 17012G22KT P6SM VCSH BKN035=

USA.gov is the U.S. government's official web portal to all federal, state and local government web resources and services.